createdAt,value
2019-01-16T00:01:17.470Z,2.47
2019-01-16T00:04:33.670Z,2.42
2019-01-16T00:08:03.413Z,2.20
2019-01-16T00:11:26.474Z,2.42
2019-01-16T00:14:50.971Z,2.77
2019-01-16T00:18:17.295Z,2.51
2019-01-16T00:21:41.284Z,2.33
2019-01-16T00:25:05.766Z,2.57
2019-01-16T00:28:48.335Z,2.44
2019-01-16T00:32:05.923Z,2.47
2019-01-16T00:35:29.379Z,2.82
2019-01-16T00:38:51.234Z,2.46
2019-01-16T00:42:18.515Z,2.50
2019-01-16T00:45:45.780Z,2.58
2019-01-16T00:49:18.758Z,2.54
2019-01-16T00:52:49.120Z,2.54
2019-01-16T00:56:09.554Z,2.34
2019-01-16T00:59:40.099Z,2.58
2019-01-16T01:03:07.798Z,2.61
2019-01-16T01:06:47.822Z,2.89
2019-01-16T01:10:21.592Z,2.95
2019-01-16T01:13:48.938Z,3.08
2019-01-16T01:17:16.244Z,2.77
2019-01-16T01:20:43.543Z,2.72
2019-01-16T01:24:26.473Z,2.99
2019-01-16T01:28:00.079Z,3.03
2019-01-16T01:31:27.956Z,2.86
2019-01-16T01:34:44.510Z,3.05
2019-01-16T01:38:07.695Z,2.93
2019-01-16T01:41:32.304Z,3.07
2019-01-16T01:44:58.681Z,3.19
2019-01-16T01:48:16.208Z,3.41
2019-01-16T01:51:49.204Z,3.44
2019-01-16T01:55:14.519Z,3.43
2019-01-16T01:58:41.780Z,3.70
2019-01-16T02:01:56.733Z,3.53
2019-01-16T02:05:27.134Z,3.80
2019-01-16T02:09:00.661Z,3.98
2019-01-16T02:12:38.774Z,4.01
2019-01-16T02:16:15.372Z,4.12
2019-01-16T02:19:38.595Z,3.86
2019-01-16T02:23:01.941Z,3.98
2019-01-16T02:26:32.284Z,4.04
2019-01-16T02:29:55.657Z,4.12
2019-01-16T02:33:20.162Z,4.09
2019-01-16T02:36:37.480Z,4.29
2019-01-16T02:40:00.449Z,4.30
2019-01-16T02:43:28.390Z,4.34
2019-01-16T02:46:46.146Z,4.19
2019-01-16T02:50:09.378Z,4.28
2019-01-16T02:53:32.424Z,4.17
2019-01-16T02:56:59.915Z,4.27
2019-01-16T03:00:15.890Z,4.16
2019-01-16T03:03:55.527Z,4.11
2019-01-16T03:07:11.354Z,3.79
2019-01-16T03:10:41.875Z,3.86
2019-01-16T03:14:09.091Z,3.79
2019-01-16T03:17:33.608Z,3.90
2019-01-16T03:20:56.678Z,3.89
2019-01-16T03:24:23.940Z,4.02
2019-01-16T03:27:48.445Z,4.13
2019-01-16T03:31:12.957Z,4.05
2019-01-16T03:34:29.451Z,4.05
2019-01-16T03:37:46.913Z,4.09
2019-01-16T03:41:11.413Z,3.99
2019-01-16T03:44:34.815Z,4.01
2019-01-16T03:48:02.459Z,4.12
2019-01-16T03:51:25.317Z,4.17
2019-01-16T03:54:48.740Z,4.21
2019-01-16T03:58:11.885Z,4.17
2019-01-16T04:01:35.069Z,4.32
2019-01-16T04:05:00.406Z,4.28
2019-01-16T04:08:18.848Z,4.07
2019-01-16T04:11:43.482Z,4.24
2019-01-16T04:15:17.278Z,4.31
2019-01-16T04:18:50.949Z,4.21
2019-01-16T04:22:18.233Z,4.37
2019-01-16T04:25:41.285Z,4.36
2019-01-16T04:28:56.645Z,4.32
2019-01-16T04:32:30.226Z,4.55
2019-01-16T04:36:03.908Z,4.55
2019-01-16T04:39:23.270Z,4.86
2019-01-16T04:42:46.778Z,4.62
2019-01-16T04:46:20.235Z,4.57
2019-01-16T04:49:37.185Z,4.61
2019-01-16T04:53:00.270Z,4.90
2019-01-16T04:56:23.710Z,4.71
2019-01-16T04:59:54.056Z,4.81
2019-01-16T05:03:30.941Z,4.90
2019-01-16T05:06:54.077Z,5.18
2019-01-16T05:10:18.614Z,5.08
2019-01-16T05:13:34.702Z,5.16
2019-01-16T05:17:01.905Z,5.08
2019-01-16T05:20:26.215Z,5.14
2019-01-16T05:23:59.969Z,5.04
2019-01-16T05:27:23.188Z,5.17
2019-01-16T05:30:46.211Z,5.17
2019-01-16T05:34:09.270Z,5.25
2019-01-16T05:37:48.818Z,5.33
2019-01-16T05:41:11.973Z,5.22
2019-01-16T05:44:35.105Z,5.32
2019-01-16T05:48:03.833Z,5.18
2019-01-16T05:51:28.377Z,5.13
2019-01-16T05:54:47.966Z,5.19
2019-01-16T05:58:18.316Z,5.31
2019-01-16T06:01:41.512Z,5.28
2019-01-16T06:05:05.957Z,5.32
2019-01-16T06:08:19.952Z,5.55
2019-01-16T06:11:47.351Z,5.64
2019-01-16T06:15:17.910Z,5.60
2019-01-16T06:18:42.418Z,5.76
2019-01-16T06:22:07.907Z,5.71
2019-01-16T06:25:31.231Z,5.88
2019-01-16T06:28:55.778Z,6.02
2019-01-16T06:32:18.867Z,6.48
2019-01-16T06:35:47.285Z,6.92
2019-01-16T06:39:20.909Z,7.01
2019-01-16T06:42:48.403Z,7.41
2019-01-16T06:46:12.976Z,7.82
2019-01-16T06:49:41.750Z,7.93
2019-01-16T06:53:24.448Z,7.96
2019-01-16T06:56:51.726Z,7.83
2019-01-16T07:00:15.045Z,8.01
2019-01-16T07:03:42.503Z,7.84
2019-01-16T07:07:25.212Z,7.87
2019-01-16T07:10:55.742Z,7.72
2019-01-16T07:14:10.077Z,7.42
2019-01-16T07:17:53.134Z,7.06
2019-01-16T07:21:17.677Z,7.34
2019-01-16T07:25:00.340Z,7.25
2019-01-16T07:28:37.124Z,7.31
2019-01-16T07:32:07.709Z,7.65
2019-01-16T07:35:44.240Z,8.02
2019-01-16T07:39:11.788Z,8.73
2019-01-16T07:42:35.088Z,8.77
2019-01-16T07:46:05.525Z,8.61
2019-01-16T07:49:28.223Z,9.26
2019-01-16T07:52:50.668Z,9.50
2019-01-16T07:56:27.318Z,9.33
2019-01-16T08:00:10.003Z,9.71
2019-01-16T08:03:33.246Z,10.47
2019-01-16T08:07:09.756Z,10.55
2019-01-16T08:10:49.840Z,10.65
2019-01-16T08:14:09.775Z,10.65
2019-01-16T08:17:25.470Z,10.70
2019-01-16T08:20:56.963Z,10.55
2019-01-16T08:24:39.605Z,10.92
2019-01-16T08:28:06.875Z,11.28
2019-01-16T08:31:31.377Z,11.26
2019-01-16T08:35:03.524Z,11.03
2019-01-16T08:38:28.912Z,10.95
2019-01-16T08:41:56.274Z,10.98
2019-01-16T08:45:23.598Z,11.75
2019-01-16T08:49:00.369Z,11.99
2019-01-16T08:52:27.739Z,12.58
2019-01-16T08:55:47.697Z,12.72
2019-01-16T08:59:25.348Z,12.93
2019-01-16T09:02:50.789Z,12.52
2019-01-16T09:06:15.359Z,12.95
2019-01-16T09:09:58.081Z,12.95
2019-01-16T09:13:21.249Z,12.36
2019-01-16T09:16:39.869Z,12.78
2019-01-16T09:20:13.717Z,12.75
2019-01-16T09:23:31.080Z,12.79
2019-01-16T09:26:52.524Z,12.92
2019-01-16T09:30:15.984Z,12.61
2019-01-16T09:33:52.533Z,12.97
2019-01-16T09:37:32.234Z,13.19
2019-01-16T09:41:02.926Z,13.46
2019-01-16T09:44:32.741Z,13.60
2019-01-16T09:48:12.317Z,13.28
2019-01-16T09:51:35.536Z,12.61
2019-01-16T09:55:15.272Z,12.23
2019-01-16T09:58:38.925Z,11.94
2019-01-16T10:02:21.731Z,11.69
2019-01-16T10:06:04.722Z,11.84
2019-01-16T10:09:20.299Z,12.28
2019-01-16T10:12:50.982Z,12.63
2019-01-16T10:16:15.500Z,12.92
2019-01-16T10:19:39.002Z,13.30
2019-01-16T10:23:09.696Z,13.31
2019-01-16T10:26:33.150Z,13.29
2019-01-16T10:30:00.709Z,13.09
2019-01-16T10:33:23.136Z,13.52
2019-01-16T10:36:46.547Z,13.48
2019-01-16T10:40:09.661Z,13.86
2019-01-16T10:43:27.673Z,13.51
2019-01-16T10:46:51.079Z,13.42
2019-01-16T10:50:07.655Z,13.20
2019-01-16T10:53:30.835Z,13.62
2019-01-16T10:56:58.158Z,13.85
2019-01-16T11:00:23.032Z,13.79
2019-01-16T11:03:44.033Z,14.05
2019-01-16T11:07:14.846Z,13.97
2019-01-16T11:10:48.703Z,14.16
2019-01-16T11:14:13.210Z,14.23
2019-01-16T11:17:40.807Z,14.28
2019-01-16T11:21:10.979Z,14.00
2019-01-16T11:24:30.653Z,13.79
2019-01-16T11:28:04.271Z,14.11
2019-01-16T11:31:47.281Z,14.35
2019-01-16T11:35:10.613Z,13.70
2019-01-16T11:38:37.874Z,12.85
2019-01-16T11:41:55.235Z,12.15
2019-01-16T11:45:10.736Z,11.98
2019-01-16T11:48:35.280Z,11.93
2019-01-16T11:52:02.697Z,11.56
2019-01-16T11:55:39.370Z,11.23
2019-01-16T11:58:58.844Z,11.20
2019-01-16T12:02:19.931Z,11.57
2019-01-16T12:05:36.448Z,12.03
2019-01-16T12:09:07.448Z,12.19
2019-01-16T12:12:30.799Z,12.43
2019-01-16T12:16:04.294Z,12.54
2019-01-16T12:19:24.920Z,12.51
2019-01-16T12:22:49.524Z,12.71
2019-01-16T12:26:09.092Z,13.07
2019-01-16T12:29:33.637Z,13.11
2019-01-16T12:32:49.558Z,13.16
2019-01-16T12:36:12.721Z,12.94
2019-01-16T12:39:43.093Z,12.77
2019-01-16T12:43:13.561Z,13.05
2019-01-16T12:46:40.904Z,13.24
2019-01-16T12:50:15.391Z,13.09
2019-01-16T12:53:42.793Z,13.26
2019-01-16T12:57:07.446Z,13.21
2019-01-16T13:00:26.657Z,13.44
2019-01-16T13:03:49.979Z,12.96
2019-01-16T13:07:14.478Z,13.23
2019-01-16T13:10:44.845Z,13.51
2019-01-16T13:14:06.369Z,13.44
2019-01-16T13:17:31.799Z,13.51
2019-01-16T13:20:55.177Z,13.29
2019-01-16T13:24:22.363Z,13.51
2019-01-16T13:27:43.403Z,13.44
2019-01-16T13:31:06.828Z,13.30
2019-01-16T13:34:46.863Z,13.48
2019-01-16T13:38:09.420Z,13.13
2019-01-16T13:41:36.980Z,13.19
2019-01-16T13:45:07.678Z,13.02
2019-01-16T13:48:38.504Z,12.88
2019-01-16T13:52:09.017Z,12.77
2019-01-16T13:55:40.148Z,12.84
2019-01-16T13:59:00.388Z,12.80
2019-01-16T14:02:24.697Z,12.40
2019-01-16T14:05:52.499Z,12.31
2019-01-16T14:09:20.052Z,12.28
2019-01-16T14:12:34.796Z,11.95
2019-01-16T14:15:58.126Z,11.63
2019-01-16T14:19:21.298Z,11.34
2019-01-16T14:22:46.973Z,11.15
2019-01-16T14:26:10.155Z,11.20
2019-01-16T14:29:33.231Z,11.12
2019-01-16T14:33:05.208Z,11.01
2019-01-16T14:36:41.932Z,10.95
2019-01-16T14:40:12.472Z,10.96
2019-01-16T14:43:41.645Z,10.86
2019-01-16T14:47:24.526Z,10.78
2019-01-16T14:50:46.670Z,10.78
2019-01-16T14:54:16.324Z,10.59
2019-01-16T14:57:49.770Z,10.56
2019-01-16T15:01:17.833Z,10.53
2019-01-16T15:04:48.243Z,10.45
2019-01-16T15:08:11.950Z,10.48
2019-01-16T15:11:36.791Z,10.39
2019-01-16T15:14:52.125Z,10.36
2019-01-16T15:18:15.573Z,10.24
2019-01-16T15:21:45.927Z,10.20
2019-01-16T15:25:02.621Z,10.05
2019-01-16T15:28:20.171Z,10.03
2019-01-16T15:31:47.698Z,10.03
2019-01-16T15:35:18.057Z,9.84
2019-01-16T15:38:42.556Z,9.91
2019-01-16T15:42:07.164Z,9.90
2019-01-16T15:45:23.584Z,9.94
2019-01-16T15:48:55.178Z,9.93
2019-01-16T15:52:30.067Z,9.93
2019-01-16T15:56:04.499Z,9.82
2019-01-16T15:59:38.306Z,9.81
2019-01-16T16:03:05.863Z,9.68
2019-01-16T16:06:28.966Z,9.71
2019-01-16T16:09:56.502Z,9.78
2019-01-16T16:13:19.922Z,9.70
2019-01-16T16:16:37.815Z,9.71
2019-01-16T16:20:01.008Z,9.77
2019-01-16T16:23:29.088Z,9.70
2019-01-16T16:26:53.827Z,9.51
2019-01-16T16:30:36.988Z,9.58
2019-01-16T16:34:19.734Z,9.63
2019-01-16T16:37:44.305Z,9.61
2019-01-16T16:41:07.389Z,9.75
2019-01-16T16:44:30.656Z,9.56
2019-01-16T16:47:56.255Z,9.46
2019-01-16T16:51:20.757Z,9.45
2019-01-16T16:54:54.772Z,9.55
2019-01-16T16:58:19.266Z,9.56
2019-01-16T17:01:56.130Z,9.55
2019-01-16T17:05:19.482Z,9.48
2019-01-16T17:08:47.335Z,9.26
2019-01-16T17:12:10.532Z,9.19
2019-01-16T17:15:38.072Z,9.24
2019-01-16T17:18:57.919Z,9.08
2019-01-16T17:22:22.591Z,9.05
2019-01-16T17:25:46.625Z,9.04
2019-01-16T17:29:11.186Z,8.93
2019-01-16T17:32:31.067Z,9.20
2019-01-16T17:35:54.573Z,9.16
2019-01-16T17:39:19.228Z,9.06
2019-01-16T17:42:46.543Z,9.16
2019-01-16T17:46:13.986Z,9.39
2019-01-16T17:49:37.121Z,9.33
2019-01-16T17:53:07.656Z,9.48
2019-01-16T17:56:31.208Z,9.46
2019-01-16T17:59:52.500Z,9.38
2019-01-16T18:03:08.280Z,9.47
2019-01-16T18:06:42.109Z,9.46
2019-01-16T18:10:24.685Z,9.38
2019-01-16T18:13:58.260Z,9.43
2019-01-16T18:17:21.668Z,9.60
2019-01-16T18:21:04.732Z,9.49
2019-01-16T18:24:27.414Z,9.60
2019-01-16T18:27:53.307Z,9.50
2019-01-16T18:31:17.892Z,9.47
2019-01-16T18:34:57.865Z,9.53
2019-01-16T18:38:12.223Z,9.43
2019-01-16T18:41:35.700Z,9.61
2019-01-16T18:45:06.252Z,9.60
2019-01-16T18:48:40.050Z,9.68
2019-01-16T18:52:51.767Z,9.71
2019-01-16T18:57:02.310Z,9.81
2019-01-16T19:01:22.576Z,9.90
2019-01-16T19:04:48.492Z,9.82
2019-01-16T19:08:50.354Z,9.85
2019-01-16T19:12:42.316Z,9.94
2019-01-16T19:16:16.505Z,9.94
2019-01-16T19:20:05.047Z,9.97
2019-01-16T19:23:29.649Z,9.91
2019-01-16T19:27:00.025Z,9.85
2019-01-16T19:30:45.487Z,9.92
2019-01-16T19:34:12.630Z,10.09
2019-01-16T19:37:43.020Z,9.90
2019-01-16T19:41:07.478Z,9.72
2019-01-16T19:44:38.337Z,9.95
2019-01-16T19:48:42.370Z,9.85
2019-01-16T19:52:06.791Z,10.01
2019-01-16T19:56:10.260Z,9.78
2019-01-16T20:00:00.624Z,9.77
2019-01-16T20:03:17.758Z,9.77
2019-01-16T20:06:54.568Z,9.82
2019-01-16T20:10:34.460Z,9.72
2019-01-16T20:13:56.867Z,9.52
2019-01-16T20:17:15.896Z,9.51
2019-01-16T20:20:58.997Z,9.38
2019-01-16T20:24:26.775Z,9.69
2019-01-16T20:27:51.236Z,9.52
2019-01-16T20:31:15.889Z,9.63
2019-01-16T20:34:52.410Z,9.50
2019-01-16T20:38:15.421Z,9.63
2019-01-16T20:41:38.763Z,9.59
2019-01-16T20:45:02.724Z,9.58
2019-01-16T20:48:30.169Z,9.54
2019-01-16T20:52:03.644Z,9.49
2019-01-16T20:55:27.011Z,9.46
2019-01-16T20:58:51.478Z,9.47
2019-01-16T21:02:22.043Z,9.38
2019-01-16T21:05:45.289Z,9.50
2019-01-16T21:09:08.441Z,9.43
2019-01-16T21:12:36.305Z,9.43
2019-01-16T21:15:57.238Z,9.46
2019-01-16T21:19:17.999Z,9.57
2019-01-16T21:22:54.852Z,9.36
2019-01-16T21:26:22.144Z,9.64
2019-01-16T21:29:53.016Z,9.42
2019-01-16T21:33:26.831Z,9.40
2019-01-16T21:36:54.351Z,9.39
2019-01-16T21:40:34.028Z,9.45
2019-01-16T21:44:16.810Z,9.18
2019-01-16T21:47:40.182Z,9.45
2019-01-16T21:51:03.574Z,9.29
2019-01-16T21:54:31.295Z,9.24
2019-01-16T21:57:54.469Z,9.26
2019-01-16T22:01:28.144Z,9.37
2019-01-16T22:04:44.066Z,9.25
2019-01-16T22:08:14.449Z,8.93
2019-01-16T22:11:39.189Z,8.78
2019-01-16T22:15:03.608Z,8.79
2019-01-16T22:18:31.184Z,8.87
2019-01-16T22:21:58.716Z,8.56
2019-01-16T22:25:23.315Z,8.50
2019-01-16T22:28:50.994Z,8.40
2019-01-16T22:32:14.426Z,7.98
2019-01-16T22:35:48.523Z,7.88
2019-01-16T22:39:19.348Z,8.13
2019-01-16T22:42:39.718Z,7.94
2019-01-16T22:46:10.569Z,7.65
2019-01-16T22:49:34.071Z,7.59
2019-01-16T22:53:16.890Z,7.76
2019-01-16T22:56:40.074Z,7.49
2019-01-16T23:00:16.586Z,7.33
2019-01-16T23:03:41.173Z,7.56
2019-01-16T23:07:18.137Z,7.66
2019-01-16T23:10:41.399Z,7.38
2019-01-16T23:14:15.132Z,7.57
2019-01-16T23:17:38.581Z,7.64
2019-01-16T23:21:06.302Z,7.79
2019-01-16T23:24:30.776Z,7.76
2019-01-16T23:27:55.242Z,7.87
2019-01-16T23:31:14.577Z,7.98
2019-01-16T23:34:41.837Z,8.09
2019-01-16T23:38:09.211Z,8.13
2019-01-16T23:41:42.608Z,8.18
2019-01-16T23:45:22.412Z,8.16
2019-01-16T23:48:51.575Z,8.01
2019-01-16T23:52:14.700Z,8.29
2019-01-16T23:55:29.615Z,8.14
2019-01-16T23:59:00.185Z,8.01
